Terminal Aerodrome Forecast
Issued by NWS Glasgow, MT

Home | Current Version | Previous Version | Text Only | Print | Product List | Glossary On
Versions: 1 2 3 4 5 6 7 8 9 10 11 12 13 14
000
FTUS45 KGGW 260500
TAFGGW
TAF
KGGW 260520Z 2606/2706 VRB04KT P6SM BKN035
      TEMPO 2606/2609 BKN029
     FM261100 VRB06KT P6SM VCSH BKN025
     FM270000 VRB06KT P6SM SCT025 BKN150=

USA.gov is the U.S. government's official web portal to all federal, state and local government web resources and services.